• Join FlightAware (Why Join?)
  • Login
  • US Flag 
03:27PM EDT


 

Airport Tracker/Info


-or-


 

Live Flight TrackerFlight Track Log ✈ ASQ4179 ✈ 30-Apr-2013 ✈ KEWR - KBTV

Flight Track Log - Related Links

Times and Time Zones

All times are in EDT time to prevent confusion due to time zone crossing. See the ASQ4179 flight status page for this flight to view local times or setup timezone preferences in your user account.

Time Position Orientation Groundspeed Altitude Reporting Facility
EDT Latitude Longitude Course Direction KTS MPH feet Rate Location/Type
12:07PM 40.7333 -74.1167 27° Northeast 189 217 2,500  Level New York TRACON
12:08PM 40.7833 -74.0667 37° Northeast 253 291 4,000 1,920 Climbing New York TRACON
12:09PM 40.9579 -73.8588 37° Northeast  Level FlightAware Approximate
12:09PM 40.8500 -74.0167 30° Northeast 256 295 6,400  Level New York TRACON
12:09PM 40.8167 -73.9500 123° Southeast 269 310 8,400 1,980 Climbing New York TRACON
12:10PM 41.0312 -73.7817 40° Northeast  Level FlightAware Approximate
12:10PM 40.8333 -73.8667 75° East 285 328 10,300  Level New York TRACON
12:11PM 41.1026 -73.7013 40° Northeast  Level FlightAware Approximate
12:12PM 41.1810 -73.6349 27° Northeast  Level FlightAware Approximate
12:12PM 40.9236 -73.7475 45° Northeast 304 350 12,800  Level Boston Center
12:13PM 41.0119 -73.6806 30° Northeast 325 374 14,600 1,620 Climbing Boston Center
12:14PM 41.0833 -73.6242 31° Northeast 333 383 16,100 1,380 Climbing Boston Center
12:15PM 41.1736 -73.5431 34° Northeast 340 391 17,700 1,260 Climbing Boston Center
12:16PM 41.2600 -73.4617 35° Northeast 351 404 19,000 1,380 Climbing Boston Center
12:17PM 41.3439 -73.3856 34° Northeast 356 410 20,500 1,500 Climbing Boston Center
12:18PM 41.4258 -73.3067 36° Northeast 356 410 22,000 1,440 Climbing Boston Center
12:19PM 41.5097 -73.2272 35° Northeast 356 410 23,400 1,200 Climbing Boston Center
12:20PM 41.6058 -73.2147 North 337 388 24,500 780 Climbing Boston Center
12:21PM 41.7081 -73.2103 North 344 396 25,000 240 Climbing Boston Center
12:22PM 41.8206 -73.2089 North 375 432 25,000  Level Boston Center
12:23PM 41.9331 -73.2075 North 393 452 25,000  Level Boston Center
12:24PM 42.0519 -73.2061 360° North 413 475 25,000  Level Boston Center
12:25PM 42.1706 -73.2047 360° North 418 481 25,000  Level Boston Center
12:26PM 42.2894 -73.2006 North 423 487 25,000  Level Boston Center
12:27PM 42.4086 -73.1656 12° North 423 487 25,000  Level Boston Center
12:28PM 42.5233 -73.1133 19° North 423 487 25,000  Level Boston Center
12:29PM 42.6508 -73.0725 13° North 428 493 25,000  Level Boston Center
12:30PM 42.7675 -73.0650 North 428 493 25,000  Level Boston Center
12:31PM 42.8883 -73.0719 358° North 428 493 25,000 -120 Level Boston Center
12:32PM 43.0092 -73.0789 358° North 428 493 24,800 -360 Descending Boston Center
12:33PM 43.1300 -73.0858 358° North 428 493 24,300 -420 Descending Boston Center
12:35PM 43.2717 -73.0931 358° North 422 486 24,000 -420 Descending Boston Center
12:36PM 43.3925 -73.1000 358° North 422 486 23,400 -1,200 Descending Boston Center
12:37PM 43.4947 -73.1011 360° North 416 479 21,600 -1,980 Descending Boston Center
12:38PM 43.6114 -73.1083 357° North 416 479 19,500 -1,920 Descending Boston Center
12:39PM 43.7258 -73.1153 357° North 416 479 17,800 -2,040 Descending Boston Center
12:40PM 43.8489 -73.1225 358° North 405 466 15,500 -2,160 Descending Boston Center
12:41PM 43.9531 -73.1322 356° North 383 441 13,500 -2,100 Descending Boston Center
12:42PM 44.0486 -73.1650 346° North 361 415 11,400 -2,100 Descending Boston Center
12:43PM 44.1275 -73.1922 346° North 312 359 9,400 -1,980 Descending Boston Center
12:44PM 44.2025 -73.2161 347° North 280 322 7,500 -1,980 Descending Boston Center
12:45PM 44.2731 -73.2375 348° North 262 302 5,500 -1,860 Descending Boston Center
12:46PM 44.3397 -73.2586 347° North 252 290 3,800 -1,260 Descending Boston Center
12:47PM 44.4103 -73.2800 348° North 252 290 3,000 -780 Descending Boston Center
12:48PM 44.4708 -73.2808 359° North 237 273 2,300 -720 Descending Boston Center